createdAt,value
2023-04-28T00:01:28.065Z,3.6
2023-04-28T00:16:38.017Z,3.4
2023-04-28T00:31:48.333Z,3.1
2023-04-28T00:46:58.129Z,3.1
2023-04-28T01:02:08.086Z,4.2
2023-04-28T01:17:18.156Z,3.3
2023-04-28T01:32:27.660Z,4
2023-04-28T01:47:38.006Z,3.4
2023-04-28T02:02:47.865Z,3.8
2023-04-28T02:17:58.089Z,4.8
2023-04-28T02:33:09.154Z,4.3
2023-04-28T02:48:19.455Z,5.1
2023-04-28T03:03:29.768Z,4.6
2023-04-28T03:18:39.638Z,4.2
2023-04-28T03:33:48.946Z,4.8
2023-04-28T03:48:58.573Z,4.6
2023-04-28T04:04:09.472Z,5.1
2023-04-28T04:19:19.927Z,4.9
2023-04-28T04:34:29.600Z,5.4
2023-04-28T04:49:39.607Z,5.1
2023-04-28T05:04:50.185Z,5.5
2023-04-28T05:20:01.035Z,5.3
2023-04-28T05:35:11.656Z,5.7
2023-04-28T05:50:21.413Z,4.9
2023-04-28T06:05:32.533Z,5.6
2023-04-28T06:20:43.505Z,5.6
2023-04-28T06:35:53.140Z,6.1
2023-04-28T06:51:03.263Z,6
2023-04-28T07:06:14.773Z,6.3
2023-04-28T07:21:25.310Z,6.7
2023-04-28T07:36:35.675Z,5.9
2023-04-28T07:51:45.682Z,6.7
2023-04-28T08:06:55.578Z,7.3
2023-04-28T08:22:06.307Z,7.3
2023-04-28T08:37:16.329Z,7.6
2023-04-28T08:52:26.684Z,7.4
2023-04-28T09:07:38.616Z,7.8
2023-04-28T09:22:49.182Z,8
2023-04-28T09:37:59.536Z,8.1
2023-04-28T09:53:09.192Z,8.7
2023-04-28T10:08:18.767Z,9.1
2023-04-28T10:23:28.542Z,9.5
2023-04-28T10:38:38.742Z,10.1
2023-04-28T10:53:49.040Z,9.4
2023-04-28T11:08:58.921Z,9.6
2023-04-28T11:24:09.466Z,9.2
2023-04-28T11:39:19.438Z,9.6
2023-04-28T11:54:29.420Z,8.9
2023-04-28T12:09:39.313Z,9.2
2023-04-28T12:24:49.513Z,9.1
2023-04-28T12:39:59.712Z,9.5
2023-04-28T12:55:09.971Z,10
2023-04-28T13:10:19.500Z,9.6
2023-04-28T13:25:28.549Z,9.2
2023-04-28T13:40:38.070Z,8.6
2023-04-28T13:55:50.195Z,9.9
2023-04-28T14:11:00.483Z,9
2023-04-28T14:26:10.103Z,9
2023-04-28T14:41:20.199Z,8.7
2023-04-28T14:56:33.925Z,10
2023-04-28T15:11:44.170Z,10.4
2023-04-28T15:26:54.543Z,10.6
2023-04-28T15:42:04.499Z,12.7
2023-04-28T15:57:15.710Z,12.8
2023-04-28T16:12:25.276Z,14.1
2023-04-28T16:27:34.472Z,14.3
2023-04-28T16:42:43.964Z,13.5
2023-04-28T16:57:53.793Z,15.2
2023-04-28T17:13:03.034Z,13.8
2023-04-28T17:28:15.486Z,14.8
2023-04-28T17:43:25.975Z,14
2023-04-28T17:58:35.625Z,16.8
2023-04-28T18:13:45.560Z,17.5
2023-04-28T18:28:57.643Z,17.6
2023-04-28T18:44:07.652Z,17.2
2023-04-28T18:59:18.429Z,16
2023-04-28T19:14:27.887Z,23.5
2023-04-28T19:29:37.382Z,20.1
2023-04-28T19:44:46.552Z,22.1
2023-04-28T19:59:56.061Z,25.4
2023-04-28T20:15:06.028Z,25.4
2023-04-28T20:30:15.473Z,23.7
2023-04-28T20:45:25.180Z,25.1
2023-04-28T21:00:35.513Z,21.9
2023-04-28T21:15:45.828Z,17.3
2023-04-28T21:30:55.234Z,14.2
2023-04-28T21:46:05.048Z,11.2
2023-04-28T22:01:15.678Z,11.3
2023-04-28T22:16:25.526Z,11.3
2023-04-28T22:31:35.439Z,10.3
2023-04-28T22:46:46.216Z,12
2023-04-28T23:01:55.494Z,13.2
2023-04-28T23:17:05.430Z,15.2
2023-04-28T23:32:15.264Z,20.2
2023-04-28T23:47:25.298Z,22.2
